Time;durP1;ratioP1;P1;durP2;ratioP2;P2;SDS_P1;SDS_P2;PMS_P1;PMS_P2;Temp;Humidity;BMP_temperature;BMP_pressure;BME280_temperature;BME280_humidity;BME280_pressure;Samples;Min_cycle;Max_cycle;Signal;HPM_P1;HPM_P2
2021/05/27 00:00:53;;;;;;;;;;;;;;;24.03;64.27;100725.69;1761018;81;20239;-58
2021/05/27 00:03:19;;;;;;;;;;;;;;;24.01;64.28;100729.41;1719710;82;20709;-58
2021/05/27 00:05:45;;;;;;;;;;;;;;;23.98;64.23;100734.23;1720103;82;22285;-58
2021/05/27 00:08:11;;;;;;;;;;;;;;;23.95;64.21;100732.16;1765221;79;20212;-57
2021/05/27 00:10:37;;;;;;;;;;;;;;;23.92;64.21;100733.66;1773744;79;20194;-58
2021/05/27 00:13:03;;;;;;;;;;;;;;;23.89;64.20;100721.82;1768723;79;20288;-57
2021/05/27 00:15:30;;;;;;;;;;;;;;;23.86;64.20;100729.45;1773406;79;20239;-58
2021/05/27 00:17:56;;;;;;;;;;;;;;;23.84;64.23;100726.80;1773018;79;21835;-57
2021/05/27 00:20:22;;;;;;;;;;;;;;;23.81;64.24;100730.23;1766404;79;20197;-58
2021/05/27 00:22:48;;;;;;;;;;;;;;;23.79;64.28;100728.39;1736618;81;20256;-58
2021/05/27 00:25:14;;;;;;;;;;;;;;;23.77;64.28;100722.35;1741990;81;20260;-57
2021/05/27 00:27:43;;;;;;;;;;;;;;;23.74;64.28;100718.87;1739055;81;20729;-58
2021/05/27 00:30:10;;;;;;;;;;;;;;;23.71;64.33;100707.88;1741912;81;21102;-57
2021/05/27 00:32:36;;;;;;;;;;;;;;;23.69;64.34;100699.06;1734140;81;20240;-57
2021/05/27 00:35:03;;;;;;;;;;;;;;;23.65;64.36;100673.94;1722463;82;20296;-57
2021/05/27 00:37:29;;;;;;;;;;;;;;;23.64;64.37;100665.94;1741332;81;20233;-57
2021/05/27 00:39:55;;;;;;;;;;;;;;;23.61;64.40;100656.91;1736825;81;20801;-57
2021/05/27 00:42:20;;;;;;;;;;;;;;;23.58;64.42;100657.03;1732718;81;21033;-57
2021/05/27 00:45:12;;;;;;;;;;;;;;;23.56;64.47;100664.05;1739924;81;20790;-57
2021/05/27 00:47:39;;;;;;;;;;;;;;;23.55;64.52;100659.68;1741240;81;20487;-58
2021/05/27 00:50:06;;;;;;;;;;;;;;;23.55;64.48;100649.96;1734170;81;21806;-58
2021/05/27 00:52:33;;;;;;;;;;;;;;;23.56;64.51;100671.81;1736884;81;20541;-58
2021/05/27 00:54:59;;;;;;;;;;;;;;;23.58;64.56;100674.27;1732941;81;20958;-58
2021/05/27 00:57:33;;;;;;;;;;;;;;;23.59;64.61;100668.95;1713172;82;20296;-58
2021/05/27 00:59:59;;;;;;;;;;;;;;;23.61;64.66;100670.22;1738947;81;20161;-59
2021/05/27 01:02:25;;;;;;;;;;;;;;;23.63;64.69;100683.78;1741061;81;20260;-58
2021/05/27 01:04:51;;;;;;;;;;;;;;;23.66;64.73;100703.92;1733753;81;20280;-58
2021/05/27 01:07:17;;;;;;;;;;;;;;;23.70;64.76;100720.14;1738290;81;21035;-58
2021/05/27 01:09:43;;;;;;;;;;;;;;;23.72;64.74;100719.20;1740519;81;20361;-58
2021/05/27 01:12:10;;;;;;;;;;;;;;;23.75;64.75;100707.44;1737033;81;20288;-58
2021/05/27 01:17:23;;;;;;;;;;;;;;;23.80;64.74;100685.58;1735014;81;20273;-58
2021/05/27 01:19:47;;;;;;;;;;;;;;;23.80;64.71;100683.61;1735987;81;21349;-58
2021/05/27 01:22:13;;;;;;;;;;;;;;;23.81;64.68;100686.60;1760785;80;20214;-58
2021/05/27 01:24:39;;;;;;;;;;;;;;;23.80;64.66;100680.02;1757832;80;20212;-58
2021/05/27 01:27:06;;;;;;;;;;;;;;;23.79;64.65;100683.38;1769792;80;20293;-57
2021/05/27 01:29:32;;;;;;;;;;;;;;;23.78;64.62;100682.31;1758801;80;20688;-58
2021/05/27 01:31:58;;;;;;;;;;;;;;;23.76;64.60;100675.73;1765805;80;21267;-58
2021/05/27 01:34:24;;;;;;;;;;;;;;;23.74;64.57;100675.82;1764061;80;20258;-57
2021/05/27 01:36:50;;;;;;;;;;;;;;;23.72;64.57;100672.59;1759606;80;20307;-58
2021/05/27 01:39:16;;;;;;;;;;;;;;;23.69;64.56;100665.73;1763899;80;20256;-58
2021/05/27 01:41:42;;;;;;;;;;;;;;;23.66;64.55;100661.69;1770872;80;20437;-58
2021/05/27 01:44:08;;;;;;;;;;;;;;;23.63;64.55;100651.84;1774502;80;21266;-58
2021/05/27 01:46:34;;;;;;;;;;;;;;;23.60;64.53;100657.48;1769333;80;20244;-58
2021/05/27 01:49:01;;;;;;;;;;;;;;;23.57;64.57;100660.13;1748467;80;20206;-58
2021/05/27 01:51:28;;;;;;;;;;;;;;;23.54;64.56;100664.98;1769590;79;20172;-58
2021/05/27 01:53:54;;;;;;;;;;;;;;;23.51;64.60;100665.08;1747879;80;20250;-58
2021/05/27 01:56:20;;;;;;;;;;;;;;;23.48;64.62;100664.37;1742739;80;21126;-57
2021/05/27 01:58:46;;;;;;;;;;;;;;;23.47;64.64;100667.48;1750035;80;20953;-58
2021/05/27 02:01:12;;;;;;;;;;;;;;;23.44;64.66;100662.05;1754569;80;20639;-58
2021/05/27 02:03:38;;;;;;;;;;;;;;;23.42;64.66;100656.58;1754094;80;20484;-58
2021/05/27 02:06:04;;;;;;;;;;;;;;;23.40;64.69;100652.74;1744946;80;20206;-58
2021/05/27 02:08:30;;;;;;;;;;;;;;;23.38;64.72;100654.25;1763568;80;20968;-58
2021/05/27 02:10:56;;;;;;;;;;;;;;;23.36;64.75;100664.86;1745709;80;20533;-57
2021/05/27 02:13:23;;;;;;;;;;;;;;;23.34;64.77;100672.13;1744384;80;20245;-57
2021/05/27 02:15:49;;;;;;;;;;;;;;;23.33;64.78;100680.82;1750202;80;20424;-58
2021/05/27 02:18:14;;;;;;;;;;;;;;;23.35;64.78;100686.83;1746241;80;20174;-58
2021/05/27 02:20:40;;;;;;;;;;;;;;;23.36;64.81;100676.78;1751562;80;21085;-57
2021/05/27 02:23:06;;;;;;;;;;;;;;;23.37;64.83;100675.64;1722946;82;20221;-58
2021/05/27 02:25:32;;;;;;;;;;;;;;;23.39;64.89;100679.45;1724658;82;20721;-58
2021/05/27 02:27:58;;;;;;;;;;;;;;;23.41;64.93;100703.53;1719031;82;20719;-58
2021/05/27 02:30:25;;;;;;;;;;;;;;;23.43;64.97;100707.62;1716904;82;20221;-58
2021/05/27 02:32:51;;;;;;;;;;;;;;;23.47;64.99;100715.50;1725279;82;21170;-58
2021/05/27 02:35:17;;;;;;;;;;;;;;;23.50;64.98;100719.59;1721629;82;20337;-58
2021/05/27 02:37:43;;;;;;;;;;;;;;;23.54;64.97;100726.08;1724101;82;20502;-57
2021/05/27 02:40:10;;;;;;;;;;;;;;;23.57;64.98;100730.95;1713529;81;20420;-58
2021/05/27 02:42:36;;;;;;;;;;;;;;;23.59;64.96;100743.33;1695267;84;20610;-58
2021/05/27 02:45:03;;;;;;;;;;;;;;;23.60;64.95;100750.52;1689652;84;21104;-58
2021/05/27 02:47:30;;;;;;;;;;;;;;;23.61;64.94;100768.81;1734298;81;20990;-58
2021/05/27 02:49:56;;;;;;;;;;;;;;;23.61;64.92;100777.16;1730008;81;20141;-58
2021/05/27 02:52:22;;;;;;;;;;;;;;;23.61;64.87;100788.83;1736731;81;21913;-58
2021/05/27 02:54:48;;;;;;;;;;;;;;;23.61;64.83;100798.55;1734706;81;20204;-58
2021/05/27 02:57:14;;;;;;;;;;;;;;;23.56;64.80;100794.01;1734704;81;21037;-58
2021/05/27 02:59:39;;;;;;;;;;;;;;;23.56;64.79;100777.92;1732573;81;20731;-58
2021/05/27 03:02:06;;;;;;;;;;;;;;;23.54;64.77;100779.66;1734622;81;20216;-57
2021/05/27 03:04:32;;;;;;;;;;;;;;;23.53;64.73;100775.83;1731506;81;20330;-58
2021/05/27 03:06:58;;;;;;;;;;;;;;;23.50;64.72;100765.41;1725095;82;20330;-59
2021/05/27 03:09:24;;;;;;;;;;;;;;;23.48;64.70;100768.51;1715237;82;21106;-58
2021/05/27 03:11:53;;;;;;;;;;;;;;;23.46;64.69;100782.50;1719205;82;20202;-58
2021/05/27 03:14:18;;;;;;;;;;;;;;;23.42;64.70;100794.02;1721817;82;20235;-58
2021/05/27 03:16:44;;;;;;;;;;;;;;;23.39;64.72;100799.65;1691769;84;20246;-59
2021/05/27 03:19:10;;;;;;;;;;;;;;;23.36;64.73;100797.55;1717007;82;20249;-57
2021/05/27 03:21:36;;;;;;;;;;;;;;;23.36;64.74;100794.78;1722896;81;21037;-58
2021/05/27 03:24:02;;;;;;;;;;;;;;;23.34;64.76;100793.50;1752685;80;20277;-57
2021/05/27 03:26:28;;;;;;;;;;;;;;;23.30;64.75;100797.50;1761266;80;20489;-58
2021/05/27 03:28:54;;;;;;;;;;;;;;;23.29;64.79;100797.28;1764584;81;20622;-58
2021/05/27 03:31:20;;;;;;;;;;;;;;;23.29;64.78;100802.02;1751540;80;20207;-58
2021/05/27 03:33:46;;;;;;;;;;;;;;;23.29;64.80;100802.02;1714025;82;22147;-58
2021/05/27 03:36:12;;;;;;;;;;;;;;;23.27;64.82;100795.41;1719244;82;20186;-57
2021/05/27 03:38:38;;;;;;;;;;;;;;;23.27;64.82;100784.88;1717973;82;20169;-58
2021/05/27 03:41:04;;;;;;;;;;;;;;;23.24;64.84;100775.27;1722756;81;20294;-58
2021/05/27 03:43:30;;;;;;;;;;;;;;;23.25;64.84;100771.92;1770427;79;20872;-58
2021/05/27 03:45:58;;;;;;;;;;;;;;;23.26;64.80;100763.23;1768584;79;21071;-58
2021/05/27 03:48:24;;;;;;;;;;;;;;;23.28;64.81;100749.84;1773062;79;21587;-58
2021/05/27 03:50:50;;;;;;;;;;;;;;;23.29;64.83;100744.54;1768842;79;20232;-56
2021/05/27 03:53:16;;;;;;;;;;;;;;;23.32;64.88;100734.71;1767753;79;20184;-56
2021/05/27 03:55:42;;;;;;;;;;;;;;;23.34;64.92;100717.94;1768576;79;20209;-56
2021/05/27 04:00:52;;;;;;;;;;;;;;;23.40;64.95;100684.67;1774199;79;20211;-57
2021/05/27 04:03:18;;;;;;;;;;;;;;;23.45;64.98;100673.39;1768638;79;20225;-56
2021/05/27 04:08:29;;;;;;;;;;;;;;;23.51;64.96;100698.40;1769070;79;20204;-56
2021/05/27 04:10:55;;;;;;;;;;;;;;;23.56;64.94;100683.50;1765068;79;21767;-55
2021/05/27 04:13:21;;;;;;;;;;;;;;;23.59;64.89;100682.84;1769635;79;20263;-56
2021/05/27 04:15:47;;;;;;;;;;;;;;;23.59;64.91;100689.17;1766410;79;20408;-57
2021/05/27 04:18:15;;;;;;;;;;;;;;;23.60;64.86;100698.33;1769164;79;20650;-57
2021/05/27 04:20:54;;;;;;;;;;;;;;;23.62;64.86;100696.03;1768410;79;20224;-56
2021/05/27 04:23:38;;;;;;;;;;;;;;;23.62;64.80;100697.42;1745150;80;21230;-56
2021/05/27 04:26:03;;;;;;;;;;;;;;;23.60;64.74;100692.20;1717816;82;20321;-56
2021/05/27 04:28:30;;;;;;;;;;;;;;;23.62;64.73;100696.84;1752767;80;20490;-56
2021/05/27 04:31:09;;;;;;;;;;;;;;;23.62;64.73;100694.08;1739940;80;20284;-55
2021/05/27 04:33:47;;;;;;;;;;;;;;;23.61;64.71;100696.61;1723550;82;20260;-57
2021/05/27 04:36:15;;;;;;;;;;;;;;;23.62;64.77;100694.08;1765068;79;21129;-58
2021/05/27 04:38:42;;;;;;;;;;;;;;;23.62;64.80;100698.23;1738923;80;20510;-57
2021/05/27 04:41:07;;;;;;;;;;;;;;;23.62;64.86;100691.30;1741535;80;20203;-57
2021/05/27 04:43:35;;;;;;;;;;;;;;;23.61;64.87;100688.84;1766420;79;20208;-55
2021/05/27 04:46:01;;;;;;;;;;;;;;;23.62;64.92;100691.30;1755477;81;20600;-58
2021/05/27 04:48:27;;;;;;;;;;;;;;;23.60;64.93;100681.66;1751166;81;21970;-58
2021/05/27 04:50:53;;;;;;;;;;;;;;;23.60;65.02;100688.60;1719610;82;20264;-57
2021/05/27 04:53:20;;;;;;;;;;;;;;;23.61;65.11;100688.27;1760053;79;20288;-57
2021/05/27 04:55:46;;;;;;;;;;;;;;;23.63;65.19;100688.77;1756422;80;20504;-57
2021/05/27 04:58:12;;;;;;;;;;;;;;;23.64;65.21;100691.75;1764531;79;20294;-57
2021/05/27 05:00:38;;;;;;;;;;;;;;;23.69;65.22;100692.12;1757744;80;22605;-57
2021/05/27 05:03:05;;;;;;;;;;;;;;;23.71;65.25;100691.79;1761877;80;20245;-57
2021/05/27 05:05:32;;;;;;;;;;;;;;;23.74;65.33;100698.86;1763494;80;20601;-57
2021/05/27 05:07:58;;;;;;;;;;;;;;;23.76;65.40;100700.73;1758292;80;20631;-58
2021/05/27 05:10:25;;;;;;;;;;;;;;;23.79;65.48;100710.34;1758784;79;20251;-52
2021/05/27 05:12:51;;;;;;;;;;;;;;;23.81;65.55;100701.88;1767413;79;21118;-55
2021/05/27 05:15:24;;;;;;;;;;;;;;;23.85;65.60;100696.48;1766105;80;20595;-53
2021/05/27 05:18:03;;;;;;;;;;;;;;;23.87;65.65;100699.14;1766104;80;20228;-53
2021/05/27 05:20:30;;;;;;;;;;;;;;;23.91;65.68;100694.52;1766738;80;20389;-53
2021/05/27 05:22:56;;;;;;;;;;;;;;;23.93;65.73;100684.46;1767347;79;20236;-54
2021/05/27 05:25:22;;;;;;;;;;;;;;;23.95;65.76;100682.95;1770539;79;21055;-55
2021/05/27 05:27:48;;;;;;;;;;;;;;;23.97;65.76;100682.05;1777851;79;20394;-55
2021/05/27 05:30:15;;;;;;;;;;;;;;;24.00;65.79;100676.37;1776312;79;20215;-53
2021/05/27 05:32:41;;;;;;;;;;;;;;;24.02;65.79;100679.59;1770798;79;20237;-54
2021/05/27 05:35:09;;;;;;;;;;;;;;;24.02;65.79;100672.65;1769723;79;20255;-55
2021/05/27 05:37:35;;;;;;;;;;;;;;;24.01;65.78;100671.86;1770701;79;21069;-54
2021/05/27 05:40:02;;;;;;;;;;;;;;;24.01;65.78;100678.00;1775315;79;20196;-52
2021/05/27 05:42:28;;;;;;;;;;;;;;;23.99;65.75;100670.56;1774929;79;20215;-54
2021/05/27 05:44:54;;;;;;;;;;;;;;;23.97;65.73;100680.66;1773268;79;20674;-54
2021/05/27 05:47:20;;;;;;;;;;;;;;;23.95;65.70;100673.80;1773045;79;20215;-54
2021/05/27 05:49:46;;;;;;;;;;;;;;;23.91;65.68;100686.19;1775374;79;21039;-54
2021/05/27 05:52:12;;;;;;;;;;;;;;;23.88;65.65;100688.84;1772652;79;20267;-54
2021/05/27 05:54:39;;;;;;;;;;;;;;;23.84;65.67;100690.68;1772630;79;20498;-55
2021/05/27 05:57:06;;;;;;;;;;;;;;;23.81;65.69;100695.51;1768869;79;20211;-55
2021/05/27 05:59:32;;;;;;;;;;;;;;;23.77;65.71;100704.30;1773428;79;20180;-54
2021/05/27 06:01:58;;;;;;;;;;;;;;;23.72;65.71;100708.09;1777863;79;21108;-55
2021/05/27 06:04:24;;;;;;;;;;;;;;;23.71;65.76;100711.23;1776854;79;20722;-54
2021/05/27 06:06:51;;;;;;;;;;;;;;;23.70;65.79;100717.94;1745096;80;20196;-57
2021/05/27 06:09:18;;;;;;;;;;;;;;;23.68;65.82;100721.86;1777439;79;20543;-53
2021/05/27 06:11:44;;;;;;;;;;;;;;;23.65;65.83;100728.09;1772157;79;20232;-55
2021/05/27 06:14:10;;;;;;;;;;;;;;;23.63;65.85;100726.26;1771384;79;21569;-54
2021/05/27 06:16:36;;;;;;;;;;;;;;;23.60;65.87;100739.41;1768881;79;20163;-54
2021/05/27 06:19:03;;;;;;;;;;;;;;;23.58;65.90;100745.90;1771230;79;20515;-53
2021/05/27 06:21:28;;;;;;;;;;;;;;;23.57;65.90;100755.95;1772803;79;20151;-54
2021/05/27 06:23:54;;;;;;;;;;;;;;;23.58;65.93;100768.12;1762512;79;20135;-53
2021/05/27 06:26:20;;;;;;;;;;;;;;;23.59;65.99;100772.50;1759638;80;20677;-54
2021/05/27 06:28:45;;;;;;;;;;;;;;;23.61;66.02;100772.98;1763683;80;20174;-55
2021/05/27 06:31:11;;;;;;;;;;;;;;;23.65;66.09;100783.65;1756023;80;20248;-54
2021/05/27 06:33:37;;;;;;;;;;;;;;;23.68;66.12;100788.30;1762837;80;20141;-54
2021/05/27 06:36:05;;;;;;;;;;;;;;;23.70;66.14;100785.41;1766230;80;20174;-53
2021/05/27 06:38:31;;;;;;;;;;;;;;;23.73;66.18;100795.84;1760854;80;20139;-53
2021/05/27 06:40:56;;;;;;;;;;;;;;;23.76;66.17;100800.73;1754730;80;20122;-54
2021/05/27 06:43:22;;;;;;;;;;;;;;;23.79;66.19;100808.39;1743467;80;20397;-54
2021/05/27 06:45:48;;;;;;;;;;;;;;;23.83;66.18;100811.30;1752492;79;20186;-54
2021/05/27 06:48:14;;;;;;;;;;;;;;;23.86;66.19;100816.98;1758450;80;20194;-55
2021/05/27 06:50:40;;;;;;;;;;;;;;;23.90;66.16;100819.31;1747358;80;20198;-54
2021/05/27 06:53:10;;;;;;;;;;;;;;;23.92;66.16;100819.80;1755279;80;20190;-55
2021/05/27 06:55:37;;;;;;;;;;;;;;;23.95;66.16;100822.47;1735248;80;20195;-54
2021/05/27 06:58:02;;;;;;;;;;;;;;;23.95;66.12;100825.25;1740980;80;20175;-55
2021/05/27 07:00:28;;;;;;;;;;;;;;;23.97;66.08;100822.38;1720535;82;20642;-54
2021/05/27 07:02:54;;;;;;;;;;;;;;;23.97;66.00;100834.07;1721345;82;20181;-54
2021/05/27 07:05:21;;;;;;;;;;;;;;;23.96;65.96;100827.70;1745106;81;20198;-54
2021/05/27 07:07:46;;;;;;;;;;;;;;;23.95;65.95;100825.25;1725301;82;20202;-54
2021/05/27 07:10:14;;;;;;;;;;;;;;;23.95;65.92;100826.63;1759315;81;20200;-55
2021/05/27 07:12:51;;;;;;;;;;;;;;;23.93;65.88;100821.41;1761451;81;20138;-53
2021/05/27 07:15:18;;;;;;;;;;;;;;;23.91;65.88;100825.69;1718643;82;20176;-52
2021/05/27 07:17:44;;;;;;;;;;;;;;;23.90;65.87;100813.76;1720346;82;20211;-54
2021/05/27 07:20:11;;;;;;;;;;;;;;;23.88;65.86;100808.31;1763212;80;20296;-52
2021/05/27 07:22:37;;;;;;;;;;;;;;;23.86;65.87;100807.25;1759019;80;20237;-53
2021/05/27 07:25:05;;;;;;;;;;;;;;;23.84;65.86;100793.48;1705651;82;20212;-54
2021/05/27 07:27:30;;;;;;;;;;;;;;;23.81;65.86;100784.41;1706240;82;20200;-53
2021/05/27 07:29:57;;;;;;;;;;;;;;;23.80;65.86;100788.37;1755037;80;20212;-54
2021/05/27 07:32:23;;;;;;;;;;;;;;;23.77;65.91;100782.08;1752950;80;20269;-54
2021/05/27 07:34:48;;;;;;;;;;;;;;;23.75;65.92;100777.45;1757130;80;20729;-53
2021/05/27 07:37:14;;;;;;;;;;;;;;;23.73;65.92;100770.84;1751872;80;20384;-53
2021/05/27 07:39:40;;;;;;;;;;;;;;;23.70;65.97;100763.20;1758970;81;20157;-54
2021/05/27 07:42:06;;;;;;;;;;;;;;;23.70;65.96;100749.30;1756319;81;20248;-55
2021/05/27 07:44:34;;;;;;;;;;;;;;;23.71;65.98;100739.01;1756515;81;20434;-53
2021/05/27 07:46:59;;;;;;;;;;;;;;;23.72;66.05;100732.31;1754635;80;20164;-54
2021/05/27 07:49:25;;;;;;;;;;;;;;;23.74;66.11;100736.93;1753154;80;20228;-54
2021/05/27 07:51:51;;;;;;;;;;;;;;;23.76;66.19;100738.81;1758992;81;20679;-55
2021/05/27 07:54:17;;;;;;;;;;;;;;;23.79;66.23;100737.55;1762527;81;21060;-54
2021/05/27 07:56:43;;;;;;;;;;;;;;;23.81;66.25;100738.00;1756779;81;20259;-54
2021/05/27 07:59:09;;;;;;;;;;;;;;;23.85;66.26;100735.37;1760184;80;20669;-55
2021/05/27 08:01:35;;;;;;;;;;;;;;;23.88;66.26;100729.95;1753009;80;20184;-56
2021/05/27 08:04:01;;;;;;;;;;;;;;;23.91;66.27;100718.14;1754182;80;21100;-53
2021/05/27 08:06:26;;;;;;;;;;;;;;;23.94;66.26;100714.67;1727277;81;20680;-55
2021/05/27 08:08:52;;;;;;;;;;;;;;;23.99;66.28;100719.20;1754572;80;20336;-55
2021/05/27 08:11:18;;;;;;;;;;;;;;;24.00;66.22;100716.66;1751804;80;20251;-54
2021/05/27 08:13:46;;;;;;;;;;;;;;;24.02;66.24;100718.50;1756398;80;20187;-54
2021/05/27 08:16:12;;;;;;;;;;;;;;;24.02;66.20;100717.93;1751648;80;21263;-55
2021/05/27 08:18:38;;;;;;;;;;;;;;;24.02;66.17;100701.83;1737411;81;20191;-54
2021/05/27 08:21:04;;;;;;;;;;;;;;;24.00;66.14;100704.97;1740192;81;20728;-54
2021/05/27 08:23:30;;;;;;;;;;;;;;;23.99;66.10;100691.41;1742465;81;20214;-54
2021/05/27 08:25:56;;;;;;;;;;;;;;;23.97;66.08;100690.95;1729383;82;20740;-55
2021/05/27 08:28:22;;;;;;;;;;;;;;;23.95;66.05;100693.25;1741810;81;21057;-55
2021/05/27 08:30:48;;;;;;;;;;;;;;;23.93;66.02;100685.85;1744903;81;20926;-51
2021/05/27 08:33:14;;;;;;;;;;;;;;;23.89;66.01;100691.86;1733749;82;20218;-55
2021/05/27 08:35:40;;;;;;;;;;;;;;;23.88;66.02;100688.84;1735446;81;20480;-55
2021/05/27 08:38:06;;;;;;;;;;;;;;;23.86;66.01;100690.56;1736069;81;20214;-54
2021/05/27 08:40:32;;;;;;;;;;;;;;;23.85;66.02;100698.66;1737853;80;21851;-55
2021/05/27 08:42:58;;;;;;;;;;;;;;;23.85;66.04;100695.09;1739471;81;20189;-55
2021/05/27 08:45:29;;;;;;;;;;;;;;;23.85;66.02;100697.87;1742147;81;20151;-56
2021/05/27 08:47:56;;;;;;;;;;;;;;;23.85;66.02;100702.82;1736863;82;20559;-55
2021/05/27 08:50:44;;;;;;;;;;;;;;;23.85;66.01;100706.98;1731747;81;20207;-55
2021/05/27 08:52:53;;;;;;;;;;;;;;;23.85;66.00;100702.82;1735377;80;21177;-55
2021/05/27 08:55:19;;;;;;;;;;;;;;;23.84;65.95;100703.19;1738856;81;20265;-55
2021/05/27 08:57:45;;;;;;;;;;;;;;;23.83;65.95;100700.16;1743251;81;20237;-55
2021/05/27 09:00:12;;;;;;;;;;;;;;;23.80;65.97;100693.91;1743021;81;20630;-55
2021/05/27 09:02:56;;;;;;;;;;;;;;;23.81;65.96;100694.13;1741068;81;36114;-55
2021/05/27 09:05:23;;;;;;;;;;;;;;;23.82;65.95;100685.45;1741049;80;21065;-54
2021/05/27 09:07:49;;;;;;;;;;;;;;;23.84;65.95;100689.30;1750347;81;20238;-54
2021/05/27 09:10:15;;;;;;;;;;;;;;;23.86;65.99;100689.74;1742606;81;20235;-54
2021/05/27 09:12:41;;;;;;;;;;;;;;;23.87;66.03;100686.64;1765807;80;20223;-54
2021/05/27 09:15:17;;;;;;;;;;;;;;;23.92;66.04;100680.05;1758898;80;20156;-55
2021/05/27 09:17:48;;;;;;;;;;;;;;;23.96;66.08;100690.72;1768494;79;21192;-54
2021/05/27 09:20:24;;;;;;;;;;;;;;;24.00;66.07;100681.92;1756527;80;20155;-54
2021/05/27 09:23:14;;;;;;;;;;;;;;;24.06;66.04;100692.47;1772896;79;20283;-55
2021/05/27 09:25:45;;;;;;;;;;;;;;;24.13;66.02;100686.36;1775985;79;20233;-54
2021/05/27 09:28:13;;;;;;;;;;;;;;;24.19;65.95;100690.55;1772092;79;20220;-54
2021/05/27 09:30:47;;;;;;;;;;;;;;;24.24;65.88;100687.55;1773054;80;20995;-53
2021/05/27 09:33:14;;;;;;;;;;;;;;;24.28;65.82;100694.05;1771433;79;20466;-55
2021/05/27 09:35:40;;;;;;;;;;;;;;;24.31;65.76;100691.98;1777064;79;20346;-53
2021/05/27 09:38:06;;;;;;;;;;;;;;;24.33;65.66;100693.83;1775289;79;20188;-54
2021/05/27 09:40:36;;;;;;;;;;;;;;;24.33;65.58;100693.83;1770260;79;20753;-53
2021/05/27 09:43:06;;;;;;;;;;;;;;;24.34;65.52;100695.46;1772855;79;22314;-54
2021/05/27 09:45:33;;;;;;;;;;;;;;;24.33;65.45;100683.28;1769252;79;20207;-54
2021/05/27 09:47:59;;;;;;;;;;;;;;;24.32;65.42;100681.08;1772920;79;20430;-54
2021/05/27 09:50:34;;;;;;;;;;;;;;;24.31;65.34;100676.70;1742320;80;20954;-55
2021/05/27 09:52:53;;;;;;;;;;;;;;;24.32;65.33;100678.88;1770203;79;20157;-54
2021/05/27 09:55:19;;;;;;;;;;;;;;;24.33;65.30;100683.28;1771735;79;21145;-55
2021/05/27 09:57:46;;;;;;;;;;;;;;;24.35;65.25;100675.42;1775755;79;20261;-52
2021/05/27 10:00:26;;;;;;;;;;;;;;;24.37;65.26;100674.48;1772543;79;20239;-55
2021/05/27 10:02:52;;;;;;;;;;;;;;;24.40;65.21;100669.64;1774867;79;20539;-54
2021/05/27 10:05:19;;;;;;;;;;;;;;;24.42;65.16;100670.91;1774085;79;20249;-54
2021/05/27 10:07:51;;;;;;;;;;;;;;;24.44;65.11;100659.44;1768795;79;21055;-56
2021/05/27 10:10:19;;;;;;;;;;;;;;;24.46;65.06;100657.92;1772454;79;20228;-55
2021/05/27 10:12:47;;;;;;;;;;;;;;;24.46;65.04;100656.53;1771897;79;20244;-54
2021/05/27 10:15:15;;;;;;;;;;;;;;;24.48;65.02;100661.19;1768931;79;20560;-55
2021/05/27 10:17:42;;;;;;;;;;;;;;;24.50;64.98;100657.46;1770226;79;20295;-55
2021/05/27 10:20:11;;;;;;;;;;;;;;;24.51;64.97;100664.66;1768098;79;21068;-53
2021/05/27 10:22:37;;;;;;;;;;;;;;;24.55;64.93;100664.19;1772604;79;20729;-55
2021/05/27 10:25:06;;;;;;;;;;;;;;;24.59;64.90;100664.30;1776204;79;20255;-54
2021/05/27 10:27:32;;;;;;;;;;;;;;;24.63;64.91;100663.83;1774070;79;20526;-53
2021/05/27 10:29:58;;;;;;;;;;;;;;;24.68;64.93;100657.23;1775858;79;20750;-56
2021/05/27 10:32:25;;;;;;;;;;;;;;;24.74;64.93;100660.02;1770603;79;22025;-55
2021/05/27 10:34:52;;;;;;;;;;;;;;;24.81;64.93;100667.19;1738914;80;20292;-54
2021/05/27 10:37:37;;;;;;;;;;;;;;;24.88;64.93;100659.90;1760559;80;20497;-55
2021/05/27 10:40:18;;;;;;;;;;;;;;;24.94;64.93;100659.91;1763510;80;20240;-55
2021/05/27 10:43:05;;;;;;;;;;;;;;;25.02;64.89;100653.97;1756517;80;20155;-54
2021/05/27 10:45:32;;;;;;;;;;;;;;;25.09;64.85;100651.39;1765529;79;21036;-53
2021/05/27 10:48:17;;;;;;;;;;;;;;;25.16;64.81;100659.16;1771507;79;20239;-54
2021/05/27 10:51:05;;;;;;;;;;;;;;;25.22;64.77;100658.55;1770594;79;20458;-54
2021/05/27 10:53:37;;;;;;;;;;;;;;;25.27;64.74;100661.09;1764199;80;20359;-54
2021/05/27 10:56:04;;;;;;;;;;;;;;;25.32;64.70;100663.63;1772550;79;20245;-55
2021/05/27 10:58:49;;;;;;;;;;;;;;;25.35;64.64;100659.31;1769283;79;21001;-54
2021/05/27 11:01:35;;;;;;;;;;;;;;;25.38;64.58;100653.03;1776571;79;20139;-54
2021/05/27 11:04:05;;;;;;;;;;;;;;;25.39;64.51;100642.12;1773795;79;20500;-55
2021/05/27 11:06:35;;;;;;;;;;;;;;;25.40;64.44;100645.96;1771001;79;20490;-55
2021/05/27 11:09:16;;;;;;;;;;;;;;;25.41;64.43;100644.80;1757149;80;20203;-54
2021/05/27 11:11:58;;;;;;;;;;;;;;;25.43;64.41;100638.86;1766147;80;23254;-55
2021/05/27 11:14:41;;;;;;;;;;;;;;;25.44;64.38;100648.27;1765902;80;20196;-56
2021/05/27 11:17:14;;;;;;;;;;;;;;;25.48;64.37;100652.54;1759613;80;20234;-56
2021/05/27 11:22:36;;;;;;;;;;;;;;;25.48;64.31;100646.39;1769882;79;20235;-52
2021/05/27 11:25:15;;;;;;;;;;;;;;;25.48;64.31;100643.61;1774399;79;21943;-54
2021/05/27 11:27:53;;;;;;;;;;;;;;;25.50;64.33;100639.08;1775913;79;20244;-55
2021/05/27 11:30:41;;;;;;;;;;;;;;;25.51;64.35;100637.08;1767348;80;20173;-53
2021/05/27 11:33:14;;;;;;;;;;;;;;;25.51;64.36;100627.33;1769071;79;20238;-55
2021/05/27 11:35:43;;;;;;;;;;;;;;;25.55;64.39;100629.66;1768133;80;20196;-55
2021/05/27 11:38:13;;;;;;;;;;;;;;;25.60;64.41;100628.02;1766080;80;21271;-54
2021/05/27 11:40:41;;;;;;;;;;;;;;;25.63;64.43;100627.33;1770259;79;20143;-56
2021/05/27 11:43:07;;;;;;;;;;;;;;;25.67;64.51;100625.45;1769183;79;20253;-54
2021/05/27 11:45:40;;;;;;;;;;;;;;;25.74;64.56;100624.23;1772350;79;20241;-55
2021/05/27 11:48:30;;;;;;;;;;;;;;;25.79;64.57;100627.59;1767201;80;20260;-54
2021/05/27 11:51:12;;;;;;;;;;;;;;;25.88;64.61;100624.63;1770000;80;21072;-55
2021/05/27 11:53:52;;;;;;;;;;;;;;;25.97;64.62;100627.25;1769907;79;20527;-54
2021/05/27 11:56:45;;;;;;;;;;;;;;;26.06;64.61;100625.88;1766951;80;20204;-54
2021/05/27 11:59:10;;;;;;;;;;;;;;;26.13;64.55;100613.54;1767395;79;20219;-55
2021/05/27 12:01:37;;;;;;;;;;;;;;;26.20;64.49;100610.95;1766856;79;20248;-55
2021/05/27 12:04:07;;;;;;;;;;;;;;;26.26;64.45;100610.10;1767273;80;20970;-55
2021/05/27 12:06:53;;;;;;;;;;;;;;;26.32;64.40;100603.88;1768867;79;20950;-55
2021/05/27 12:09:27;;;;;;;;;;;;;;;26.39;64.35;100606.05;1772438;79;20160;-55
2021/05/27 12:11:54;;;;;;;;;;;;;;;26.43;64.26;100604.15;1770892;79;20211;-54
2021/05/27 12:14:20;;;;;;;;;;;;;;;26.46;64.21;100595.63;1777775;79;20499;-54
2021/05/27 12:16:46;;;;;;;;;;;;;;;26.49;64.16;100590.13;1747285;79;21283;-56
2021/05/27 12:19:13;;;;;;;;;;;;;;;26.50;64.09;100589.55;1770690;80;20171;-55
2021/05/27 12:21:54;;;;;;;;;;;;;;;26.51;64.05;100593.37;1769908;79;20241;-55
2021/05/27 12:24:27;;;;;;;;;;;;;;;26.52;64.03;100583.03;1761787;81;20647;-57
2021/05/27 12:26:54;;;;;;;;;;;;;;;26.52;64.01;100574.66;1761177;81;20351;-54
2021/05/27 12:29:20;;;;;;;;;;;;;;;26.53;63.96;100574.86;1748193;81;21071;-55
2021/05/27 12:31:46;;;;;;;;;;;;;;;26.52;63.97;100571.26;1769765;79;20161;-56
2021/05/27 12:34:15;;;;;;;;;;;;;;;26.51;63.97;100566.88;1773176;79;20183;-55
2021/05/27 12:37:00;;;;;;;;;;;;;;;26.51;63.96;100567.45;1772415;79;20229;-56
2021/05/27 12:39:39;;;;;;;;;;;;;;;26.50;63.98;100565.25;1752272;79;20577;-55
2021/05/27 12:42:09;;;;;;;;;;;;;;;26.48;63.98;100564.01;1777927;79;21098;-55
2021/05/27 12:44:45;;;;;;;;;;;;;;;26.48;63.99;100562.00;1774514;79;20535;-55
2021/05/27 12:47:18;;;;;;;;;;;;;;;26.48;64.01;100559.83;1774935;79;20207;-55
2021/05/27 12:49:46;;;;;;;;;;;;;;;26.53;63.98;100551.95;1772296;79;20252;-55
2021/05/27 12:52:12;;;;;;;;;;;;;;;26.57;63.97;100547.27;1775680;79;20529;-55